Terminal Aerodrome Forecast
Issued by NWS

Home | Current Version | Previous Version | Text Only | Print | Product List | Glossary On
Versions: 1 2 3 4 5 6 7 8 9 10 11 12 13 14 15 16
014
FTUS41 KBGM 202320
TAFRME
TAF
KRME 202320Z 2100/2124 VRB03KT P6SM SKC
     FM211600 13007KT P6SM BKN200=

USA.gov is the U.S. government's official web portal to all federal, state and local government web resources and services.